Check out our new PWSWeather beta!
PWSweather.com
Personal Weather Stations
Station Observations
SELSTON
Bracken House, Selston NottinghamGB NG16 6AN

Bracken HouseSelston NottinghamGB NG16 6AN

Lat: 53.070642, Lon: -1.2933

Elevation: 426

Station Type: Davis Vantage Pro 2

http://www.selstonweather.info

High Low Average
Temperature 47.7°F8.7°C 35.8°F2.1°C 41.9°F5.5°C
Dew Point 44.1°F6.7°C 33.7°F0.9°C 39.4°F4.1°C
Winds 12.0 mph 19.3 kmh Calm Calm 5.0 mph SW8.0 kmh SW
Wind Gusts 16.0 mph25.7 kmh 2.0 mph3.2 kmh 10.0 mph16.1 kmh
Humidity 93% 87% 91%
Pressure 30.04 in1017.3 mb 29.64 in1003.7 mb -
Precipitation 0.08 in2.0 mm - -
Hour Temp Dew Point Humidity Winds Wind Gusts Pressure Precip Precip Rate Daily Precip Total
12:03 AM 47.7°F8.7°C 44.0°F6.7°C 87% 3.0 mph WSW4.8 kmh WSW 10.0 mph16.1 kmh 29.69 in1005.4 mb 0.00 in0.0 mm 0.00 in0.0 mm 0.00 in0.0 mm
12:08 AM 47.6°F8.7°C 43.9°F6.6°C 87% 4.0 mph WSW6.4 kmh WSW 10.0 mph16.1 kmh 29.69 in1005.4 mb 0.00 in0.0 mm 0.00 in0.0 mm 0.00 in0.0 mm
12:13 AM 47.5°F8.6°C 43.8°F6.6°C 87% 4.0 mph WSW6.4 kmh WSW 10.0 mph16.1 kmh 29.70 in1005.8 mb 0.00 in0.0 mm 0.00 in0.0 mm 0.00 in0.0 mm
12:18 AM 47.4°F8.6°C 43.7°F6.5°C 87% 3.0 mph WSW4.8 kmh WSW 8.0 mph12.9 kmh 29.70 in1005.8 mb 0.00 in0.0 mm 0.00 in0.0 mm 0.00 in0.0 mm
12:23 AM 47.3°F8.5°C 43.6°F6.4°C 87% 4.0 mph WSW6.4 kmh WSW 8.0 mph12.9 kmh 29.70 in1005.8 mb 0.00 in0.0 mm 0.00 in0.0 mm 0.00 in0.0 mm
12:28 AM 47.2°F8.4°C 43.8°F6.6°C 88% 4.0 mph SW6.4 kmh SW 7.0 mph11.3 kmh 29.70 in1005.8 mb 0.00 in0.0 mm 0.00 in0.0 mm 0.00 in0.0 mm
12:33 AM 47.1°F8.4°C 43.4°F6.3°C 87% 6.0 mph SW9.7 kmh SW 10.0 mph16.1 kmh 29.70 in1005.8 mb 0.00 in0.0 mm 0.00 in0.0 mm 0.00 in0.0 mm
12:38 AM 47.1°F8.4°C 43.4°F6.3°C 87% 4.0 mph SW6.4 kmh SW 10.0 mph16.1 kmh 29.70 in1005.8 mb 0.00 in0.0 mm 0.00 in0.0 mm 0.00 in0.0 mm
12:43 AM 47.0°F8.3°C 43.6°F6.4°C 88% 2.0 mph SW3.2 kmh SW 10.0 mph16.1 kmh 29.70 in1005.8 mb 0.00 in0.0 mm 0.00 in0.0 mm 0.00 in0.0 mm
12:48 AM 47.0°F8.3°C 43.6°F6.4°C 88% 2.0 mph SW3.2 kmh SW 10.0 mph16.1 kmh 29.70 in1005.8 mb 0.00 in0.0 mm 0.00 in0.0 mm 0.00 in0.0 mm
12:53 AM 47.0°F8.3°C 43.9°F6.6°C 89% 4.0 mph SW6.4 kmh SW 8.0 mph12.9 kmh 29.70 in1005.8 mb 0.00 in0.0 mm 0.00 in0.0 mm 0.00 in0.0 mm
12:58 AM 47.0°F8.3°C 43.9°F6.6°C 89% 5.0 mph SW8.0 kmh SW 8.0 mph12.9 kmh 29.70 in1005.8 mb 0.00 in0.0 mm 0.00 in0.0 mm 0.00 in0.0 mm
01:03 AM 46.9°F8.3°C 43.8°F6.6°C 89% 4.0 mph SSW6.4 kmh SSW 8.0 mph12.9 kmh 29.70 in1005.8 mb 0.00 in0.0 mm 0.00 in0.0 mm 0.00 in0.0 mm
01:08 AM 46.8°F8.2°C 43.7°F6.5°C 89% 3.0 mph SW4.8 kmh SW 8.0 mph12.9 kmh 29.70 in1005.8 mb 0.00 in0.0 mm 0.00 in0.0 mm 0.00 in0.0 mm
01:13 AM 46.8°F8.2°C 43.7°F6.5°C 89% 2.0 mph SSW3.2 kmh SSW 8.0 mph12.9 kmh 29.70 in1005.8 mb 0.00 in0.0 mm 0.00 in0.0 mm 0.00 in0.0 mm
01:18 AM 46.7°F8.2°C 43.6°F6.4°C 89% 4.0 mph SSW6.4 kmh SSW 8.0 mph12.9 kmh 29.70 in1005.8 mb 0.00 in0.0 mm 0.00 in0.0 mm 0.00 in0.0 mm
01:23 AM 46.6°F8.1°C 43.5°F6.4°C 89% 4.0 mph SW6.4 kmh SW 8.0 mph12.9 kmh 29.70 in1005.8 mb 0.00 in0.0 mm 0.00 in0.0 mm 0.00 in0.0 mm
01:28 AM 46.5°F8.1°C 43.4°F6.3°C 89% 3.0 mph SW4.8 kmh SW 8.0 mph12.9 kmh 29.70 in1005.8 mb 0.00 in0.0 mm 0.00 in0.0 mm 0.00 in0.0 mm
01:33 AM 46.5°F8.1°C 43.4°F6.3°C 89% 2.0 mph SSW3.2 kmh SSW 8.0 mph12.9 kmh 29.69 in1005.4 mb 0.00 in0.0 mm 0.00 in0.0 mm 0.00 in0.0 mm
01:38 AM 46.3°F7.9°C 43.2°F6.2°C 89% 4.0 mph SSW6.4 kmh SSW 8.0 mph12.9 kmh 29.69 in1005.4 mb 0.00 in0.0 mm 0.00 in0.0 mm 0.00 in0.0 mm
01:43 AM 46.2°F7.9°C 43.1°F6.2°C 89% 3.0 mph SSW4.8 kmh SSW 5.0 mph8.0 kmh 29.69 in1005.4 mb 0.00 in0.0 mm 0.00 in0.0 mm 0.00 in0.0 mm
01:48 AM 46.1°F7.8°C 43.0°F6.1°C 89% 3.0 mph S4.8 kmh S 5.0 mph8.0 kmh 29.69 in1005.4 mb 0.00 in0.0 mm 0.00 in0.0 mm 0.00 in0.0 mm
01:53 AM 46.1°F7.8°C 43.0°F6.1°C 89% Calm Calm 7.0 mph11.3 kmh 29.69 in1005.4 mb 0.00 in0.0 mm 0.00 in0.0 mm 0.00 in0.0 mm
01:58 AM 46.0°F7.8°C 42.9°F6.1°C 89% 3.0 mph SW4.8 kmh SW 7.0 mph11.3 kmh 29.69 in1005.4 mb 0.00 in0.0 mm 0.00 in0.0 mm 0.00 in0.0 mm
02:03 AM 45.9°F7.7°C 42.8°F6.0°C 89% 3.0 mph SW4.8 kmh SW 7.0 mph11.3 kmh 29.69 in1005.4 mb 0.00 in0.0 mm 0.00 in0.0 mm 0.00 in0.0 mm
02:08 AM 45.8°F7.7°C 42.7°F5.9°C 89% 1.0 mph SW1.6 kmh SW 7.0 mph11.3 kmh 29.69 in1005.4 mb 0.00 in0.0 mm 0.00 in0.0 mm 0.00 in0.0 mm
02:13 AM 45.7°F7.6°C 42.6°F5.9°C 89% 2.0 mph S3.2 kmh S 6.0 mph9.7 kmh 29.69 in1005.4 mb 0.00 in0.0 mm 0.00 in0.0 mm 0.00 in0.0 mm
02:18 AM 45.7°F7.6°C 42.6°F5.9°C 89% 3.0 mph S4.8 kmh S 6.0 mph9.7 kmh 29.69 in1005.4 mb 0.00 in0.0 mm 0.00 in0.0 mm 0.00 in0.0 mm
02:23 AM 45.6°F7.6°C 42.5°F5.8°C 89% 4.0 mph S6.4 kmh S 4.0 mph6.4 kmh 29.69 in1005.4 mb 0.00 in0.0 mm 0.00 in0.0 mm 0.00 in0.0 mm
02:28 AM 45.6°F7.6°C 42.5°F5.8°C 89% 3.0 mph S4.8 kmh S 6.0 mph9.7 kmh 29.69 in1005.4 mb 0.00 in0.0 mm 0.00 in0.0 mm 0.00 in0.0 mm
02:33 AM 45.6°F7.6°C 42.8°F6.0°C 90% 4.0 mph S6.4 kmh S 6.0 mph9.7 kmh 29.68 in1005.1 mb 0.00 in0.0 mm 0.00 in0.0 mm 0.00 in0.0 mm
02:38 AM 45.6°F7.6°C 42.8°F6.0°C 90% 3.0 mph S4.8 kmh S 6.0 mph9.7 kmh 29.68 in1005.1 mb 0.00 in0.0 mm 0.00 in0.0 mm 0.00 in0.0 mm
02:43 AM 45.6°F7.6°C 42.8°F6.0°C 90% 2.0 mph S3.2 kmh S 6.0 mph9.7 kmh 29.68 in1005.1 mb 0.00 in0.0 mm 0.00 in0.0 mm 0.00 in0.0 mm
02:48 AM 45.6°F7.6°C 42.8°F6.0°C 90% 1.0 mph SSW1.6 kmh SSW 5.0 mph8.0 kmh 29.68 in1005.1 mb 0.00 in0.0 mm 0.00 in0.0 mm 0.00 in0.0 mm
02:53 AM 45.6°F7.6°C 42.8°F6.0°C 90% 4.0 mph SSW6.4 kmh SSW 5.0 mph8.0 kmh 29.68 in1005.1 mb 0.00 in0.0 mm 0.00 in0.0 mm 0.00 in0.0 mm
02:58 AM 45.5°F7.5°C 42.7°F5.9°C 90% 4.0 mph SSW6.4 kmh SSW 5.0 mph8.0 kmh 29.68 in1005.1 mb 0.00 in0.0 mm 0.00 in0.0 mm 0.00 in0.0 mm
03:03 AM 45.4°F7.4°C 42.6°F5.9°C 90% 4.0 mph SSW6.4 kmh SSW 6.0 mph9.7 kmh 29.68 in1005.1 mb 0.00 in0.0 mm 0.00 in0.0 mm 0.00 in0.0 mm
03:08 AM 45.4°F7.4°C 42.6°F5.9°C 90% 2.0 mph S3.2 kmh S 6.0 mph9.7 kmh 29.68 in1005.1 mb 0.00 in0.0 mm 0.00 in0.0 mm 0.00 in0.0 mm
03:13 AM 45.4°F7.4°C 42.9°F6.1°C 91% 3.0 mph S4.8 kmh S 6.0 mph9.7 kmh 29.68 in1005.1 mb 0.00 in0.0 mm 0.00 in0.0 mm 0.00 in0.0 mm
03:18 AM 45.4°F7.4°C 42.9°F6.1°C 91% 4.0 mph S6.4 kmh S 6.0 mph9.7 kmh 29.68 in1005.1 mb 0.00 in0.0 mm 0.00 in0.0 mm 0.00 in0.0 mm
03:23 AM 45.3°F7.4°C 42.8°F6.0°C 91% 4.0 mph S6.4 kmh S 6.0 mph9.7 kmh 29.68 in1005.1 mb 0.00 in0.0 mm 0.00 in0.0 mm 0.00 in0.0 mm
03:28 AM 45.2°F7.3°C 42.7°F5.9°C 91% 5.0 mph SSE8.0 kmh SSE 7.0 mph11.3 kmh 29.68 in1005.1 mb 0.00 in0.0 mm 0.00 in0.0 mm 0.00 in0.0 mm
03:33 AM 45.2°F7.3°C 42.7°F5.9°C 91% 4.0 mph SSE6.4 kmh SSE 7.0 mph11.3 kmh 29.68 in1005.1 mb 0.00 in0.0 mm 0.00 in0.0 mm 0.00 in0.0 mm
03:38 AM 45.2°F7.3°C 42.7°F5.9°C 91% 2.0 mph S3.2 kmh S 7.0 mph11.3 kmh 29.68 in1005.1 mb 0.00 in0.0 mm 0.00 in0.0 mm 0.00 in0.0 mm
03:43 AM 45.1°F7.3°C 42.6°F5.9°C 91% 2.0 mph S3.2 kmh S 7.0 mph11.3 kmh 29.67 in1004.7 mb 0.00 in0.0 mm 0.00 in0.0 mm 0.00 in0.0 mm
03:48 AM 45.0°F7.2°C 42.5°F5.8°C 91% 4.0 mph S6.4 kmh S 6.0 mph9.7 kmh 29.67 in1004.7 mb 0.00 in0.0 mm 0.00 in0.0 mm 0.00 in0.0 mm
03:53 AM 44.9°F7.2°C 42.4°F5.8°C 91% 4.0 mph S6.4 kmh S 7.0 mph11.3 kmh 29.67 in1004.7 mb 0.00 in0.0 mm 0.00 in0.0 mm 0.00 in0.0 mm
03:58 AM 44.9°F7.2°C 42.4°F5.8°C 91% 5.0 mph S8.0 kmh S 7.0 mph11.3 kmh 29.67 in1004.7 mb 0.00 in0.0 mm 0.00 in0.0 mm 0.00 in0.0 mm
04:03 AM 45.0°F7.2°C 42.8°F6.0°C 92% 5.0 mph S8.0 kmh S 7.0 mph11.3 kmh 29.67 in1004.7 mb 0.00 in0.0 mm 0.00 in0.0 mm 0.00 in0.0 mm
04:08 AM 45.0°F7.2°C 42.8°F6.0°C 92% 3.0 mph S4.8 kmh S 7.0 mph11.3 kmh 29.67 in1004.7 mb 0.00 in0.0 mm 0.00 in0.0 mm 0.00 in0.0 mm
04:13 AM 45.1°F7.3°C 42.9°F6.1°C 92% 3.0 mph S4.8 kmh S 7.0 mph11.3 kmh 29.67 in1004.7 mb 0.00 in0.0 mm 0.00 in0.0 mm 0.00 in0.0 mm
04:18 AM 45.1°F7.3°C 42.9°F6.1°C 92% 4.0 mph S6.4 kmh S 7.0 mph11.3 kmh 29.67 in1004.7 mb 0.00 in0.0 mm 0.00 in0.0 mm 0.00 in0.0 mm
04:23 AM 45.2°F7.3°C 43.0°F6.1°C 92% 4.0 mph S6.4 kmh S 7.0 mph11.3 kmh 29.67 in1004.7 mb 0.00 in0.0 mm 0.00 in0.0 mm 0.00 in0.0 mm
04:28 AM 45.2°F7.3°C 43.0°F6.1°C 92% 5.0 mph S8.0 kmh S 7.0 mph11.3 kmh 29.67 in1004.7 mb 0.00 in0.0 mm 0.00 in0.0 mm 0.00 in0.0 mm
04:33 AM 45.2°F7.3°C 43.0°F6.1°C 92% 1.0 mph S1.6 kmh S 8.0 mph12.9 kmh 29.66 in1004.4 mb 0.00 in0.0 mm 0.00 in0.0 mm 0.00 in0.0 mm
04:38 AM 45.1°F7.3°C 42.9°F6.1°C 92% 4.0 mph S6.4 kmh S 8.0 mph12.9 kmh 29.66 in1004.4 mb 0.00 in0.0 mm 0.00 in0.0 mm 0.00 in0.0 mm
04:43 AM 45.1°F7.3°C 42.9°F6.1°C 92% 3.0 mph S4.8 kmh S 8.0 mph12.9 kmh 29.66 in1004.4 mb 0.00 in0.0 mm 0.00 in0.0 mm 0.00 in0.0 mm
04:48 AM 45.1°F7.3°C 42.9°F6.1°C 92% 3.0 mph S4.8 kmh S 8.0 mph12.9 kmh 29.66 in1004.4 mb 0.00 in0.0 mm 0.00 in0.0 mm 0.00 in0.0 mm
04:53 AM 45.1°F7.3°C 42.9°F6.1°C 92% 2.0 mph S3.2 kmh S 8.0 mph12.9 kmh 29.66 in1004.4 mb 0.00 in0.0 mm 0.00 in0.0 mm 0.00 in0.0 mm
04:58 AM 45.1°F7.3°C 42.9°F6.1°C 92% 6.0 mph S9.7 kmh S 9.0 mph14.5 kmh 29.66 in1004.4 mb 0.00 in0.0 mm 0.00 in0.0 mm 0.00 in0.0 mm
05:03 AM 45.2°F7.3°C 43.0°F6.1°C 92% 4.0 mph S6.4 kmh S 10.0 mph16.1 kmh 29.66 in1004.4 mb 0.00 in0.0 mm 0.00 in0.0 mm 0.00 in0.0 mm
05:08 AM 45.2°F7.3°C 43.0°F6.1°C 92% 3.0 mph S4.8 kmh S 10.0 mph16.1 kmh 29.65 in1004.1 mb 0.00 in0.0 mm 0.00 in0.0 mm 0.00 in0.0 mm
05:13 AM 45.2°F7.3°C 43.0°F6.1°C 92% 6.0 mph S9.7 kmh S 13.0 mph20.9 kmh 29.65 in1004.1 mb 0.00 in0.0 mm 0.00 in0.0 mm 0.00 in0.0 mm
05:18 AM 45.2°F7.3°C 43.0°F6.1°C 92% 5.0 mph SSW8.0 kmh SSW 13.0 mph20.9 kmh 29.65 in1004.1 mb 0.00 in0.0 mm 0.00 in0.0 mm 0.00 in0.0 mm
05:23 AM 45.1°F7.3°C 42.9°F6.1°C 92% 5.0 mph S8.0 kmh S 13.0 mph20.9 kmh 29.65 in1004.1 mb 0.00 in0.0 mm 0.00 in0.0 mm 0.00 in0.0 mm
05:28 AM 45.1°F7.3°C 42.9°F6.1°C 92% 3.0 mph S4.8 kmh S 13.0 mph20.9 kmh 29.65 in1004.1 mb 0.00 in0.0 mm 0.00 in0.0 mm 0.00 in0.0 mm
05:33 AM 45.1°F7.3°C 42.9°F6.1°C 92% 4.0 mph SSW6.4 kmh SSW 9.0 mph14.5 kmh 29.65 in1004.1 mb 0.00 in0.0 mm 0.00 in0.0 mm 0.00 in0.0 mm
05:38 AM 45.1°F7.3°C 42.9°F6.1°C 92% 6.0 mph S9.7 kmh S 9.0 mph14.5 kmh 29.65 in1004.1 mb 0.00 in0.0 mm 0.00 in0.0 mm 0.00 in0.0 mm
05:43 AM 45.1°F7.3°C 42.9°F6.1°C 92% 6.0 mph S9.7 kmh S 12.0 mph19.3 kmh 29.65 in1004.1 mb 0.00 in0.0 mm 0.00 in0.0 mm 0.00 in0.0 mm
05:48 AM 45.1°F7.3°C 42.9°F6.1°C 92% 6.0 mph SSW9.7 kmh SSW 12.0 mph19.3 kmh 29.65 in1004.1 mb 0.00 in0.0 mm 0.00 in0.0 mm 0.00 in0.0 mm
05:53 AM 45.2°F7.3°C 43.0°F6.1°C 92% 4.0 mph S6.4 kmh S 12.0 mph19.3 kmh 29.65 in1004.1 mb 0.00 in0.0 mm 0.00 in0.0 mm 0.00 in0.0 mm
05:58 AM 45.2°F7.3°C 43.0°F6.1°C 92% 5.0 mph S8.0 kmh S 12.0 mph19.3 kmh 29.65 in1004.1 mb 0.00 in0.0 mm 0.00 in0.0 mm 0.00 in0.0 mm
06:03 AM 45.2°F7.3°C 43.0°F6.1°C 92% Calm Calm 10.0 mph16.1 kmh 29.65 in1004.1 mb 0.00 in0.0 mm 0.00 in0.0 mm 0.00 in0.0 mm
06:08 AM 45.2°F7.3°C 43.0°F6.1°C 92% 5.0 mph S8.0 kmh S 10.0 mph16.1 kmh 29.65 in1004.1 mb 0.00 in0.0 mm 0.00 in0.0 mm 0.00 in0.0 mm
06:13 AM 45.2°F7.3°C 43.3°F6.3°C 93% 3.0 mph S4.8 kmh S 7.0 mph11.3 kmh 29.65 in1004.1 mb 0.00 in0.0 mm 0.00 in0.0 mm 0.00 in0.0 mm
06:18 AM 45.2°F7.3°C 43.3°F6.3°C 93% 3.0 mph SSW4.8 kmh SSW 8.0 mph12.9 kmh 29.65 in1004.1 mb 0.00 in0.0 mm 0.00 in0.0 mm 0.00 in0.0 mm
06:23 AM 45.3°F7.4°C 43.4°F6.3°C 93% 5.0 mph S8.0 kmh S 10.0 mph16.1 kmh 29.64 in1003.7 mb 0.00 in0.0 mm 0.00 in0.0 mm 0.00 in0.0 mm
06:28 AM 45.3°F7.4°C 43.4°F6.3°C 93% 5.0 mph S8.0 kmh S 10.0 mph16.1 kmh 29.64 in1003.7 mb 0.00 in0.0 mm 0.00 in0.0 mm 0.00 in0.0 mm
06:33 AM 45.3°F7.4°C 43.4°F6.3°C 93% 5.0 mph S8.0 kmh S 10.0 mph16.1 kmh 29.64 in1003.7 mb 0.00 in0.0 mm 0.00 in0.0 mm 0.00 in0.0 mm
06:38 AM 45.4°F7.4°C 43.5°F6.4°C 93% 2.0 mph S3.2 kmh S 10.0 mph16.1 kmh 29.65 in1004.1 mb 0.00 in0.0 mm 0.00 in0.0 mm 0.00 in0.0 mm
06:43 AM 45.4°F7.4°C 43.5°F6.4°C 93% 6.0 mph S9.7 kmh S 9.0 mph14.5 kmh 29.65 in1004.1 mb 0.00 in0.0 mm 0.00 in0.0 mm 0.00 in0.0 mm
06:48 AM 45.4°F7.4°C 43.5°F6.4°C 93% 4.0 mph S6.4 kmh S 10.0 mph16.1 kmh 29.65 in1004.1 mb 0.00 in0.0 mm 0.00 in0.0 mm 0.00 in0.0 mm
06:53 AM 45.5°F7.5°C 43.6°F6.4°C 93% 5.0 mph S8.0 kmh S 13.0 mph20.9 kmh 29.65 in1004.1 mb 0.00 in0.0 mm 0.00 in0.0 mm 0.00 in0.0 mm
06:58 AM 45.5°F7.5°C 43.6°F6.4°C 93% 5.0 mph S8.0 kmh S 13.0 mph20.9 kmh 29.65 in1004.1 mb 0.00 in0.0 mm 0.00 in0.0 mm 0.00 in0.0 mm
07:03 AM 45.6°F7.6°C 43.7°F6.5°C 93% 6.0 mph SSE9.7 kmh SSE 13.0 mph20.9 kmh 29.65 in1004.1 mb 0.00 in0.0 mm 0.00 in0.0 mm 0.00 in0.0 mm
07:08 AM 45.7°F7.6°C 43.8°F6.6°C 93% 6.0 mph SE9.7 kmh SE 13.0 mph20.9 kmh 29.65 in1004.1 mb 0.00 in0.0 mm 0.00 in0.0 mm 0.00 in0.0 mm
07:13 AM 45.8°F7.7°C 43.9°F6.6°C 93% 4.0 mph S6.4 kmh S 13.0 mph20.9 kmh 29.65 in1004.1 mb 0.00 in0.0 mm 0.00 in0.0 mm 0.00 in0.0 mm
07:18 AM 45.9°F7.7°C 44.0°F6.7°C 93% 5.0 mph WSW8.0 kmh WSW 13.0 mph20.9 kmh 29.65 in1004.1 mb 0.00 in0.0 mm 0.00 in0.0 mm 0.00 in0.0 mm
07:23 AM 46.0°F7.8°C 44.1°F6.7°C 93% 3.0 mph SW4.8 kmh SW 12.0 mph19.3 kmh 29.65 in1004.1 mb 0.00 in0.0 mm 0.00 in0.0 mm 0.00 in0.0 mm
07:28 AM 45.9°F7.7°C 44.0°F6.7°C 93% 8.0 mph S12.9 kmh S 12.0 mph19.3 kmh 29.65 in1004.1 mb 0.00 in0.0 mm 0.00 in0.0 mm 0.00 in0.0 mm
07:33 AM 45.8°F7.7°C 43.9°F6.6°C 93% 3.0 mph SW4.8 kmh SW 10.0 mph16.1 kmh 29.64 in1003.7 mb 0.00 in0.0 mm 0.00 in0.0 mm 0.00 in0.0 mm
07:38 AM 45.7°F7.6°C 43.8°F6.6°C 93% 4.0 mph SSW6.4 kmh SSW 10.0 mph16.1 kmh 29.64 in1003.7 mb 0.00 in0.0 mm 0.00 in0.0 mm 0.00 in0.0 mm
07:43 AM 45.7°F7.6°C 43.8°F6.6°C 93% 3.0 mph SW4.8 kmh SW 6.0 mph9.7 kmh 29.64 in1003.7 mb 0.00 in0.0 mm 0.00 in0.0 mm 0.00 in0.0 mm
07:48 AM 45.6°F7.6°C 43.7°F6.5°C 93% 3.0 mph SSW4.8 kmh SSW 9.0 mph14.5 kmh 29.64 in1003.7 mb 0.00 in0.0 mm 0.00 in0.0 mm 0.00 in0.0 mm
07:53 AM 45.5°F7.5°C 43.6°F6.4°C 93% 6.0 mph SW9.7 kmh SW 11.0 mph17.7 kmh 29.65 in1004.1 mb 0.00 in0.0 mm 0.00 in0.0 mm 0.00 in0.0 mm
07:58 AM 45.4°F7.4°C 43.5°F6.4°C 93% 9.0 mph S14.5 kmh S 11.0 mph17.7 kmh 29.64 in1003.7 mb 0.00 in0.0 mm 0.00 in0.0 mm 0.00 in0.0 mm
08:03 AM 45.4°F7.4°C 43.5°F6.4°C 93% 2.0 mph S3.2 kmh S 11.0 mph17.7 kmh 29.64 in1003.7 mb 0.00 in0.0 mm 0.00 in0.0 mm 0.00 in0.0 mm
08:08 AM 45.2°F7.3°C 43.3°F6.3°C 93% 1.0 mph SSW1.6 kmh SSW 11.0 mph17.7 kmh 29.65 in1004.1 mb 0.00 in0.0 mm 0.00 in0.0 mm 0.00 in0.0 mm
08:13 AM 45.1°F7.3°C 42.9°F6.1°C 92% 4.0 mph S6.4 kmh S 9.0 mph14.5 kmh 29.65 in1004.1 mb 0.00 in0.0 mm 0.00 in0.0 mm 0.00 in0.0 mm
08:18 AM 45.1°F7.3°C 42.9°F6.1°C 92% 8.0 mph SW12.9 kmh SW 9.0 mph14.5 kmh 29.65 in1004.1 mb 0.00 in0.0 mm 0.00 in0.0 mm 0.00 in0.0 mm
08:23 AM 45.1°F7.3°C 42.9°F6.1°C 92% 5.0 mph S8.0 kmh S 9.0 mph14.5 kmh 29.65 in1004.1 mb 0.00 in0.0 mm 0.00 in0.0 mm 0.00 in0.0 mm
08:28 AM 45.1°F7.3°C 42.9°F6.1°C 92% 3.0 mph SW4.8 kmh SW 9.0 mph14.5 kmh 29.65 in1004.1 mb 0.00 in0.0 mm 0.00 in0.0 mm 0.00 in0.0 mm
08:33 AM 45.2°F7.3°C 43.0°F6.1°C 92% 7.0 mph SSW11.3 kmh SSW 9.0 mph14.5 kmh 29.65 in1004.1 mb 0.00 in0.0 mm 0.00 in0.0 mm 0.00 in0.0 mm
08:38 AM 45.1°F7.3°C 42.9°F6.1°C 92% 6.0 mph SSW9.7 kmh SSW 13.0 mph20.9 kmh 29.65 in1004.1 mb 0.00 in0.0 mm 0.00 in0.0 mm 0.00 in0.0 mm
08:43 AM 45.2°F7.3°C 43.0°F6.1°C 92% 3.0 mph SW4.8 kmh SW 13.0 mph20.9 kmh 29.65 in1004.1 mb 0.00 in0.0 mm 0.00 in0.0 mm 0.00 in0.0 mm
08:48 AM 45.2°F7.3°C 43.0°F6.1°C 92% 5.0 mph SW8.0 kmh SW 13.0 mph20.9 kmh 29.65 in1004.1 mb 0.00 in0.0 mm 0.00 in0.0 mm 0.00 in0.0 mm
08:53 AM 45.2°F7.3°C 43.0°F6.1°C 92% 6.0 mph SSW9.7 kmh SSW 13.0 mph20.9 kmh 29.65 in1004.1 mb 0.00 in0.0 mm 0.00 in0.0 mm 0.00 in0.0 mm
08:58 AM 45.1°F7.3°C 42.9°F6.1°C 92% 5.0 mph SW8.0 kmh SW 13.0 mph20.9 kmh 29.65 in1004.1 mb 0.00 in0.0 mm 0.00 in0.0 mm 0.00 in0.0 mm
09:03 AM 45.1°F7.3°C 42.9°F6.1°C 92% 5.0 mph SSW8.0 kmh SSW 13.0 mph20.9 kmh 29.66 in1004.4 mb 0.00 in0.0 mm 0.00 in0.0 mm 0.00 in0.0 mm
09:08 AM 45.1°F7.3°C 42.9°F6.1°C 92% 3.0 mph S4.8 kmh S 10.0 mph16.1 kmh 29.66 in1004.4 mb 0.00 in0.0 mm 0.00 in0.0 mm 0.00 in0.0 mm
09:13 AM 45.1°F7.3°C 43.2°F6.2°C 93% 5.0 mph WSW8.0 kmh WSW 11.0 mph17.7 kmh 29.66 in1004.4 mb 0.00 in0.0 mm 0.00 in0.0 mm 0.00 in0.0 mm
09:18 AM 45.0°F7.2°C 43.1°F6.2°C 93% 5.0 mph S8.0 kmh S 11.0 mph17.7 kmh 29.66 in1004.4 mb 0.00 in0.0 mm 0.00 in0.0 mm 0.00 in0.0 mm
09:23 AM 45.0°F7.2°C 43.1°F6.2°C 93% 3.0 mph SW4.8 kmh SW 11.0 mph17.7 kmh 29.66 in1004.4 mb 0.00 in0.0 mm 0.00 in0.0 mm 0.00 in0.0 mm
09:28 AM 44.9°F7.2°C 43.0°F6.1°C 93% 8.0 mph SW12.9 kmh SW 11.0 mph17.7 kmh 29.67 in1004.7 mb 0.00 in0.0 mm 0.00 in0.0 mm 0.00 in0.0 mm
09:33 AM 44.8°F7.1°C 42.9°F6.1°C 93% 5.0 mph WSW8.0 kmh WSW 10.0 mph16.1 kmh 29.66 in1004.4 mb 0.00 in0.0 mm 0.00 in0.0 mm 0.00 in0.0 mm
09:38 AM 44.7°F7.1°C 42.5°F5.8°C 92% 8.0 mph WSW12.9 kmh WSW 10.0 mph16.1 kmh 29.67 in1004.7 mb 0.00 in0.0 mm 0.00 in0.0 mm 0.00 in0.0 mm
09:43 AM 44.5°F6.9°C 42.3°F5.7°C 92% 5.0 mph WSW8.0 kmh WSW 11.0 mph17.7 kmh 29.67 in1004.7 mb 0.00 in0.0 mm 0.00 in0.0 mm 0.00 in0.0 mm
09:48 AM 44.5°F6.9°C 42.3°F5.7°C 92% 2.0 mph WSW3.2 kmh WSW 11.0 mph17.7 kmh 29.67 in1004.7 mb 0.00 in0.0 mm 0.00 in0.0 mm 0.00 in0.0 mm
09:53 AM 44.5°F6.9°C 42.3°F5.7°C 92% 4.0 mph SSW6.4 kmh SSW 11.0 mph17.7 kmh 29.67 in1004.7 mb 0.00 in0.0 mm 0.00 in0.0 mm 0.00 in0.0 mm
09:58 AM 44.5°F6.9°C 42.3°F5.7°C 92% 4.0 mph SW6.4 kmh SW 11.0 mph17.7 kmh 29.67 in1004.7 mb 0.00 in0.0 mm 0.00 in0.0 mm 0.01 in0.3 mm
10:03 AM 44.4°F6.9°C 42.2°F5.7°C 92% 2.0 mph S3.2 kmh S 9.0 mph14.5 kmh 29.67 in1004.7 mb 0.00 in0.0 mm 0.00 in0.0 mm 0.01 in0.3 mm
10:08 AM 44.2°F6.8°C 42.0°F5.6°C 92% 5.0 mph SW8.0 kmh SW 9.0 mph14.5 kmh 29.67 in1004.7 mb 0.00 in0.0 mm 0.00 in0.0 mm 0.01 in0.3 mm
10:13 AM 44.0°F6.7°C 41.8°F5.4°C 92% 4.0 mph SW6.4 kmh SW 8.0 mph12.9 kmh 29.68 in1005.1 mb 0.00 in0.0 mm 0.00 in0.0 mm 0.01 in0.3 mm
10:18 AM 44.0°F6.7°C 41.8°F5.4°C 92% 7.0 mph S11.3 kmh S 8.0 mph12.9 kmh 29.67 in1004.7 mb 0.00 in0.0 mm 0.00 in0.0 mm 0.01 in0.3 mm
10:23 AM 43.9°F6.6°C 41.7°F5.4°C 92% 4.0 mph SSW6.4 kmh SSW 7.0 mph11.3 kmh 29.67 in1004.7 mb 0.00 in0.0 mm 0.00 in0.0 mm 0.01 in0.3 mm
10:28 AM 43.9°F6.6°C 41.7°F5.4°C 92% 5.0 mph SSW8.0 kmh SSW 8.0 mph12.9 kmh 29.68 in1005.1 mb 0.00 in0.0 mm 0.00 in0.0 mm 0.01 in0.3 mm
10:33 AM 44.0°F6.7°C 42.1°F5.6°C 93% 2.0 mph SW3.2 kmh SW 8.0 mph12.9 kmh 29.68 in1005.1 mb 0.00 in0.0 mm 0.00 in0.0 mm 0.01 in0.3 mm
10:38 AM 44.1°F6.7°C 42.2°F5.7°C 93% 6.0 mph SW9.7 kmh SW 8.0 mph12.9 kmh 29.68 in1005.1 mb 0.00 in0.0 mm 0.00 in0.0 mm 0.01 in0.3 mm
10:43 AM 43.8°F6.6°C 41.9°F5.5°C 93% 10.0 mph WSW16.1 kmh WSW 15.0 mph24.1 kmh 29.68 in1005.1 mb 0.13 in3.3 mm 1.56 in39.6 mm 0.02 in0.5 mm
10:48 AM 43.0°F6.1°C 40.8°F4.9°C 92% 5.0 mph WSW8.0 kmh WSW 15.0 mph24.1 kmh 29.69 in1005.4 mb 0.17 in4.3 mm 0.48 in12.2 mm 0.03 in0.8 mm
10:53 AM 42.6°F5.9°C 40.4°F4.7°C 92% 4.0 mph WSW6.4 kmh WSW 15.0 mph24.1 kmh 29.69 in1005.4 mb 0.28 in7.1 mm 1.32 in33.5 mm 0.04 in1.0 mm
10:58 AM 42.3°F5.7°C 40.1°F4.5°C 92% 5.0 mph WSW8.0 kmh WSW 15.0 mph24.1 kmh 29.69 in1005.4 mb 0.10 in2.5 mm 0.00 in0.0 mm 0.06 in1.5 mm
11:03 AM 42.1°F5.6°C 39.9°F4.4°C 92% 6.0 mph SW9.7 kmh SW 7.0 mph11.3 kmh 29.69 in1005.4 mb 0.14 in3.6 mm 0.04 in1.0 mm 0.06 in1.5 mm
11:08 AM 41.9°F5.5°C 40.0°F4.4°C 93% 5.0 mph SW8.0 kmh SW 7.0 mph11.3 kmh 29.69 in1005.4 mb 0.06 in1.5 mm 0.00 in0.0 mm 0.06 in1.5 mm
11:13 AM 41.9°F5.5°C 40.0°F4.4°C 93% 3.0 mph SW4.8 kmh SW 7.0 mph11.3 kmh 29.68 in1005.1 mb 0.06 in1.5 mm 0.00 in0.0 mm 0.07 in1.8 mm
11:18 AM 42.0°F5.6°C 40.1°F4.5°C 93% 6.0 mph W9.7 kmh W 9.0 mph14.5 kmh 29.69 in1005.4 mb 0.06 in1.5 mm 0.00 in0.0 mm 0.07 in1.8 mm
11:23 AM 41.9°F5.5°C 40.0°F4.4°C 93% 7.0 mph NW11.3 kmh NW 13.0 mph20.9 kmh 29.70 in1005.8 mb 0.05 in1.3 mm 0.00 in0.0 mm 0.08 in2.0 mm
11:28 AM 41.8°F5.4°C 39.9°F4.4°C 93% 6.0 mph NW9.7 kmh NW 13.0 mph20.9 kmh 29.70 in1005.8 mb 0.05 in1.3 mm 0.00 in0.0 mm 0.08 in2.0 mm
11:33 AM 41.3°F5.2°C 39.4°F4.1°C 93% 8.0 mph NW12.9 kmh NW 16.0 mph25.7 kmh 29.71 in1006.1 mb 0.03 in0.8 mm 0.00 in0.0 mm 0.08 in2.0 mm
11:38 AM 40.8°F4.9°C 38.7°F3.7°C 92% 9.0 mph WNW14.5 kmh WNW 16.0 mph25.7 kmh 29.71 in1006.1 mb 0.00 in0.0 mm 0.00 in0.0 mm 0.08 in2.0 mm
11:43 AM 40.5°F4.7°C 38.4°F3.6°C 92% 7.0 mph NW11.3 kmh NW 16.0 mph25.7 kmh 29.71 in1006.1 mb 0.00 in0.0 mm 0.00 in0.0 mm 0.08 in2.0 mm
11:48 AM 40.4°F4.7°C 38.3°F3.5°C 92% 5.0 mph NW8.0 kmh NW 16.0 mph25.7 kmh 29.72 in1006.4 mb 0.00 in0.0 mm 0.00 in0.0 mm 0.08 in2.0 mm
11:53 AM 40.2°F4.6°C 38.1°F3.4°C 92% 11.0 mph WNW17.7 kmh WNW 15.0 mph24.1 kmh 29.72 in1006.4 mb 0.00 in0.0 mm 0.00 in0.0 mm 0.08 in2.0 mm
11:58 AM 40.0°F4.4°C 37.9°F3.3°C 92% 10.0 mph NW16.1 kmh NW 15.0 mph24.1 kmh 29.72 in1006.4 mb 0.00 in0.0 mm 0.00 in0.0 mm 0.08 in2.0 mm
12:03 PM 40.0°F4.4°C 37.9°F3.3°C 92% 7.0 mph WNW11.3 kmh WNW 14.0 mph22.5 kmh 29.73 in1006.8 mb 0.00 in0.0 mm 0.00 in0.0 mm 0.08 in2.0 mm
12:08 PM 40.0°F4.4°C 37.9°F3.3°C 92% 6.0 mph NW9.7 kmh NW 14.0 mph22.5 kmh 29.73 in1006.8 mb 0.00 in0.0 mm 0.00 in0.0 mm 0.08 in2.0 mm
12:13 PM 40.0°F4.4°C 37.9°F3.3°C 92% 3.0 mph WNW4.8 kmh WNW 12.0 mph19.3 kmh 29.73 in1006.8 mb 0.00 in0.0 mm 0.00 in0.0 mm 0.08 in2.0 mm
12:18 PM 40.0°F4.4°C 37.9°F3.3°C 92% 5.0 mph NW8.0 kmh NW 12.0 mph19.3 kmh 29.74 in1007.1 mb 0.00 in0.0 mm 0.00 in0.0 mm 0.08 in2.0 mm
12:23 PM 40.0°F4.4°C 37.6°F3.1°C 91% 7.0 mph NW11.3 kmh NW 12.0 mph19.3 kmh 29.74 in1007.1 mb 0.00 in0.0 mm 0.00 in0.0 mm 0.08 in2.0 mm
12:28 PM 40.0°F4.4°C 37.6°F3.1°C 91% 4.0 mph NW6.4 kmh NW 14.0 mph22.5 kmh 29.75 in1007.5 mb 0.00 in0.0 mm 0.00 in0.0 mm 0.08 in2.0 mm
12:33 PM 39.7°F4.3°C 37.3°F2.9°C 91% 7.0 mph W11.3 kmh W 14.0 mph22.5 kmh 29.75 in1007.5 mb 0.00 in0.0 mm 0.00 in0.0 mm 0.08 in2.0 mm
12:38 PM 39.6°F4.2°C 37.2°F2.9°C 91% 6.0 mph NW9.7 kmh NW 14.0 mph22.5 kmh 29.76 in1007.8 mb 0.00 in0.0 mm 0.00 in0.0 mm 0.08 in2.0 mm
12:43 PM 39.5°F4.2°C 37.1°F2.8°C 91% 6.0 mph NW9.7 kmh NW 14.0 mph22.5 kmh 29.76 in1007.8 mb 0.00 in0.0 mm 0.00 in0.0 mm 0.08 in2.0 mm
12:48 PM 39.5°F4.2°C 37.1°F2.8°C 91% 5.0 mph NW8.0 kmh NW 12.0 mph19.3 kmh 29.76 in1007.8 mb 0.00 in0.0 mm 0.00 in0.0 mm 0.08 in2.0 mm
12:53 PM 39.6°F4.2°C 37.2°F2.9°C 91% 3.0 mph NW4.8 kmh NW 12.0 mph19.3 kmh 29.76 in1007.8 mb 0.00 in0.0 mm 0.00 in0.0 mm 0.08 in2.0 mm
12:58 PM 39.6°F4.2°C 37.2°F2.9°C 91% 8.0 mph NW12.9 kmh NW 12.0 mph19.3 kmh 29.76 in1007.8 mb 0.00 in0.0 mm 0.00 in0.0 mm 0.08 in2.0 mm
01:03 PM 39.6°F4.2°C 37.2°F2.9°C 91% 6.0 mph WNW9.7 kmh WNW 13.0 mph20.9 kmh 29.77 in1008.1 mb 0.00 in0.0 mm 0.00 in0.0 mm 0.08 in2.0 mm
01:08 PM 39.5°F4.2°C 36.8°F2.7°C 90% 10.0 mph NW16.1 kmh NW 15.0 mph24.1 kmh 29.77 in1008.1 mb 0.00 in0.0 mm 0.00 in0.0 mm 0.08 in2.0 mm
01:13 PM 39.5°F4.2°C 36.8°F2.7°C 90% 8.0 mph WNW12.9 kmh WNW 15.0 mph24.1 kmh 29.77 in1008.1 mb 0.00 in0.0 mm 0.00 in0.0 mm 0.08 in2.0 mm
01:18 PM 39.4°F4.1°C 36.4°F2.4°C 89% 8.0 mph W12.9 kmh W 15.0 mph24.1 kmh 29.77 in1008.1 mb 0.00 in0.0 mm 0.00 in0.0 mm 0.08 in2.0 mm
01:23 PM 39.4°F4.1°C 36.4°F2.4°C 89% 5.0 mph WNW8.0 kmh WNW 15.0 mph24.1 kmh 29.77 in1008.1 mb 0.00 in0.0 mm 0.00 in0.0 mm 0.08 in2.0 mm
01:28 PM 39.5°F4.2°C 36.5°F2.5°C 89% 9.0 mph WNW14.5 kmh WNW 12.0 mph19.3 kmh 29.78 in1008.5 mb 0.00 in0.0 mm 0.00 in0.0 mm 0.08 in2.0 mm
01:33 PM 39.6°F4.2°C 36.6°F2.6°C 89% 5.0 mph W8.0 kmh W 12.0 mph19.3 kmh 29.78 in1008.5 mb 0.00 in0.0 mm 0.00 in0.0 mm 0.08 in2.0 mm
01:38 PM 39.7°F4.3°C 36.7°F2.6°C 89% 7.0 mph WNW11.3 kmh WNW 11.0 mph17.7 kmh 29.78 in1008.5 mb 0.00 in0.0 mm 0.00 in0.0 mm 0.08 in2.0 mm
01:43 PM 39.7°F4.3°C 36.7°F2.6°C 89% 6.0 mph WNW9.7 kmh WNW 11.0 mph17.7 kmh 29.78 in1008.5 mb 0.00 in0.0 mm 0.00 in0.0 mm 0.08 in2.0 mm
01:48 PM 39.7°F4.3°C 36.7°F2.6°C 89% 1.0 mph W1.6 kmh W 11.0 mph17.7 kmh 29.78 in1008.5 mb 0.00 in0.0 mm 0.00 in0.0 mm 0.08 in2.0 mm
01:53 PM 39.7°F4.3°C 36.7°F2.6°C 89% 7.0 mph W11.3 kmh W 11.0 mph17.7 kmh 29.78 in1008.5 mb 0.00 in0.0 mm 0.00 in0.0 mm 0.08 in2.0 mm
01:58 PM 39.7°F4.3°C 36.7°F2.6°C 89% 3.0 mph W4.8 kmh W 11.0 mph17.7 kmh 29.79 in1008.8 mb 0.00 in0.0 mm 0.00 in0.0 mm 0.08 in2.0 mm
02:03 PM 39.7°F4.3°C 36.7°F2.6°C 89% 8.0 mph W12.9 kmh W 9.0 mph14.5 kmh 29.79 in1008.8 mb 0.00 in0.0 mm 0.00 in0.0 mm 0.08 in2.0 mm
02:08 PM 39.8°F4.3°C 36.8°F2.7°C 89% 8.0 mph W12.9 kmh W 11.0 mph17.7 kmh 29.79 in1008.8 mb 0.00 in0.0 mm 0.00 in0.0 mm 0.08 in2.0 mm
02:13 PM 40.0°F4.4°C 37.0°F2.8°C 89% 6.0 mph W9.7 kmh W 11.0 mph17.7 kmh 29.80 in1009.1 mb 0.00 in0.0 mm 0.00 in0.0 mm 0.08 in2.0 mm
02:18 PM 40.0°F4.4°C 37.0°F2.8°C 89% 5.0 mph WNW8.0 kmh WNW 11.0 mph17.7 kmh 29.80 in1009.1 mb 0.00 in0.0 mm 0.00 in0.0 mm 0.08 in2.0 mm
02:23 PM 40.2°F4.6°C 37.2°F2.9°C 89% 6.0 mph W9.7 kmh W 11.0 mph17.7 kmh 29.80 in1009.1 mb 0.00 in0.0 mm 0.00 in0.0 mm 0.08 in2.0 mm
02:28 PM 40.2°F4.6°C 36.9°F2.7°C 88% 6.0 mph W9.7 kmh W 10.0 mph16.1 kmh 29.80 in1009.1 mb 0.00 in0.0 mm 0.00 in0.0 mm 0.08 in2.0 mm
02:33 PM 40.3°F4.6°C 37.3°F2.9°C 89% 5.0 mph WSW8.0 kmh WSW 10.0 mph16.1 kmh 29.81 in1009.5 mb 0.00 in0.0 mm 0.00 in0.0 mm 0.08 in2.0 mm
02:38 PM 40.3°F4.6°C 37.0°F2.8°C 88% 8.0 mph W12.9 kmh W 14.0 mph22.5 kmh 29.81 in1009.5 mb 0.00 in0.0 mm 0.00 in0.0 mm 0.08 in2.0 mm
02:43 PM 40.3°F4.6°C 37.0°F2.8°C 88% 7.0 mph W11.3 kmh W 14.0 mph22.5 kmh 29.82 in1009.8 mb 0.00 in0.0 mm 0.00 in0.0 mm 0.08 in2.0 mm
02:48 PM 40.3°F4.6°C 37.0°F2.8°C 88% 6.0 mph WSW9.7 kmh WSW 14.0 mph22.5 kmh 29.82 in1009.8 mb 0.00 in0.0 mm 0.00 in0.0 mm 0.08 in2.0 mm
02:53 PM 40.2°F4.6°C 36.9°F2.7°C 88% 9.0 mph W14.5 kmh W 14.0 mph22.5 kmh 29.82 in1009.8 mb 0.00 in0.0 mm 0.00 in0.0 mm 0.08 in2.0 mm
02:58 PM 40.1°F4.5°C 36.8°F2.7°C 88% 7.0 mph W11.3 kmh W 14.0 mph22.5 kmh 29.83 in1010.2 mb 0.00 in0.0 mm 0.00 in0.0 mm 0.08 in2.0 mm
03:03 PM 40.1°F4.5°C 36.8°F2.7°C 88% 9.0 mph W14.5 kmh W 14.0 mph22.5 kmh 29.83 in1010.2 mb 0.00 in0.0 mm 0.00 in0.0 mm 0.08 in2.0 mm
03:08 PM 40.1°F4.5°C 36.8°F2.7°C 88% 5.0 mph WSW8.0 kmh WSW 14.0 mph22.5 kmh 29.83 in1010.2 mb 0.00 in0.0 mm 0.00 in0.0 mm 0.08 in2.0 mm
03:13 PM 40.2°F4.6°C 37.2°F2.9°C 89% 6.0 mph WSW9.7 kmh WSW 9.0 mph14.5 kmh 29.84 in1010.5 mb 0.00 in0.0 mm 0.00 in0.0 mm 0.08 in2.0 mm
03:18 PM 40.4°F4.7°C 37.4°F3.0°C 89% 6.0 mph WSW9.7 kmh WSW 10.0 mph16.1 kmh 29.84 in1010.5 mb 0.00 in0.0 mm 0.00 in0.0 mm 0.08 in2.0 mm
03:23 PM 40.6°F4.8°C 37.3°F2.9°C 88% 4.0 mph WSW6.4 kmh WSW 10.0 mph16.1 kmh 29.84 in1010.5 mb 0.00 in0.0 mm 0.00 in0.0 mm 0.08 in2.0 mm
03:28 PM 40.6°F4.8°C 37.3°F2.9°C 88% 5.0 mph SW8.0 kmh SW 10.0 mph16.1 kmh 29.84 in1010.5 mb 0.00 in0.0 mm 0.00 in0.0 mm 0.08 in2.0 mm
03:33 PM 40.7°F4.8°C 37.4°F3.0°C 88% 7.0 mph W11.3 kmh W 10.0 mph16.1 kmh 29.84 in1010.5 mb 0.00 in0.0 mm 0.00 in0.0 mm 0.08 in2.0 mm
03:38 PM 40.7°F4.8°C 37.4°F3.0°C 88% 4.0 mph WSW6.4 kmh WSW 9.0 mph14.5 kmh 29.84 in1010.5 mb 0.00 in0.0 mm 0.00 in0.0 mm 0.08 in2.0 mm
03:43 PM 40.7°F4.8°C 37.1°F2.8°C 87% 6.0 mph W9.7 kmh W 13.0 mph20.9 kmh 29.84 in1010.5 mb 0.00 in0.0 mm 0.00 in0.0 mm 0.08 in2.0 mm
03:48 PM 40.6°F4.8°C 37.0°F2.8°C 87% 8.0 mph W12.9 kmh W 13.0 mph20.9 kmh 29.84 in1010.5 mb 0.00 in0.0 mm 0.00 in0.0 mm 0.08 in2.0 mm
03:53 PM 40.6°F4.8°C 37.0°F2.8°C 87% 10.0 mph WSW16.1 kmh WSW 13.0 mph20.9 kmh 29.84 in1010.5 mb 0.00 in0.0 mm 0.00 in0.0 mm 0.08 in2.0 mm
03:58 PM 40.4°F4.7°C 36.8°F2.7°C 87% 6.0 mph WSW9.7 kmh WSW 13.0 mph20.9 kmh 29.85 in1010.8 mb 0.00 in0.0 mm 0.00 in0.0 mm 0.08 in2.0 mm
04:03 PM 40.3°F4.6°C 36.7°F2.6°C 87% 9.0 mph NW14.5 kmh NW 10.0 mph16.1 kmh 29.85 in1010.8 mb 0.00 in0.0 mm 0.00 in0.0 mm 0.08 in2.0 mm
04:08 PM 40.2°F4.6°C 36.9°F2.7°C 88% 6.0 mph WSW9.7 kmh WSW 10.0 mph16.1 kmh 29.85 in1010.8 mb 0.00 in0.0 mm 0.00 in0.0 mm 0.08 in2.0 mm
04:13 PM 40.0°F4.4°C 36.7°F2.6°C 88% 6.0 mph WSW9.7 kmh WSW 10.0 mph16.1 kmh 29.86 in1011.2 mb 0.00 in0.0 mm 0.00 in0.0 mm 0.08 in2.0 mm
04:18 PM 40.0°F4.4°C 36.7°F2.6°C 88% 5.0 mph WSW8.0 kmh WSW 10.0 mph16.1 kmh 29.86 in1011.2 mb 0.00 in0.0 mm 0.00 in0.0 mm 0.08 in2.0 mm
04:23 PM 39.9°F4.4°C 36.6°F2.6°C 88% 5.0 mph W8.0 kmh W 10.0 mph16.1 kmh 29.86 in1011.2 mb 0.00 in0.0 mm 0.00 in0.0 mm 0.08 in2.0 mm
04:28 PM 39.8°F4.3°C 36.5°F2.5°C 88% 6.0 mph WSW9.7 kmh WSW 8.0 mph12.9 kmh 29.86 in1011.2 mb 0.00 in0.0 mm 0.00 in0.0 mm 0.08 in2.0 mm
04:33 PM 39.8°F4.3°C 36.8°F2.7°C 89% 2.0 mph WSW3.2 kmh WSW 8.0 mph12.9 kmh 29.86 in1011.2 mb 0.00 in0.0 mm 0.00 in0.0 mm 0.08 in2.0 mm
04:38 PM 39.7°F4.3°C 36.7°F2.6°C 89% 7.0 mph WSW11.3 kmh WSW 8.0 mph12.9 kmh 29.86 in1011.2 mb 0.00 in0.0 mm 0.00 in0.0 mm 0.08 in2.0 mm
04:43 PM 39.7°F4.3°C 36.7°F2.6°C 89% 3.0 mph WSW4.8 kmh WSW 9.0 mph14.5 kmh 29.87 in1011.5 mb 0.00 in0.0 mm 0.00 in0.0 mm 0.08 in2.0 mm
04:48 PM 39.5°F4.2°C 36.5°F2.5°C 89% 4.0 mph WSW6.4 kmh WSW 9.0 mph14.5 kmh 29.87 in1011.5 mb 0.00 in0.0 mm 0.00 in0.0 mm 0.08 in2.0 mm
04:53 PM 39.4°F4.1°C 36.4°F2.4°C 89% 5.0 mph WSW8.0 kmh WSW 9.0 mph14.5 kmh 29.87 in1011.5 mb 0.00 in0.0 mm 0.00 in0.0 mm 0.08 in2.0 mm
04:58 PM 39.3°F4.1°C 36.3°F2.4°C 89% 5.0 mph WSW8.0 kmh WSW 9.0 mph14.5 kmh 29.87 in1011.5 mb 0.00 in0.0 mm 0.00 in0.0 mm 0.08 in2.0 mm
05:03 PM 39.1°F3.9°C 36.1°F2.3°C 89% 4.0 mph WSW6.4 kmh WSW 8.0 mph12.9 kmh 29.88 in1011.9 mb 0.00 in0.0 mm 0.00 in0.0 mm 0.08 in2.0 mm
05:08 PM 38.9°F3.8°C 35.9°F2.2°C 89% 5.0 mph WSW8.0 kmh WSW 8.0 mph12.9 kmh 29.88 in1011.9 mb 0.00 in0.0 mm 0.00 in0.0 mm 0.08 in2.0 mm
05:13 PM 38.7°F3.7°C 36.0°F2.2°C 90% 4.0 mph WSW6.4 kmh WSW 7.0 mph11.3 kmh 29.88 in1011.9 mb 0.00 in0.0 mm 0.00 in0.0 mm 0.08 in2.0 mm
05:18 PM 38.7°F3.7°C 36.0°F2.2°C 90% 4.0 mph WSW6.4 kmh WSW 7.0 mph11.3 kmh 29.88 in1011.9 mb 0.00 in0.0 mm 0.00 in0.0 mm 0.08 in2.0 mm
05:23 PM 38.5°F3.6°C 35.8°F2.1°C 90% 2.0 mph WSW3.2 kmh WSW 7.0 mph11.3 kmh 29.89 in1012.2 mb 0.00 in0.0 mm 0.00 in0.0 mm 0.08 in2.0 mm
05:28 PM 38.3°F3.5°C 35.6°F2.0°C 90% 3.0 mph WSW4.8 kmh WSW 7.0 mph11.3 kmh 29.89 in1012.2 mb 0.00 in0.0 mm 0.00 in0.0 mm 0.08 in2.0 mm
05:33 PM 38.0°F3.3°C 35.3°F1.8°C 90% 2.0 mph WSW3.2 kmh WSW 7.0 mph11.3 kmh 29.89 in1012.2 mb 0.00 in0.0 mm 0.00 in0.0 mm 0.08 in2.0 mm
05:38 PM 37.9°F3.3°C 35.2°F1.8°C 90% 5.0 mph WSW8.0 kmh WSW 6.0 mph9.7 kmh 29.89 in1012.2 mb 0.00 in0.0 mm 0.00 in0.0 mm 0.08 in2.0 mm
05:43 PM 37.8°F3.2°C 35.1°F1.7°C 90% 2.0 mph WSW3.2 kmh WSW 6.0 mph9.7 kmh 29.89 in1012.2 mb 0.00 in0.0 mm 0.00 in0.0 mm 0.08 in2.0 mm
05:48 PM 37.5°F3.1°C 34.8°F1.6°C 90% 3.0 mph WSW4.8 kmh WSW 6.0 mph9.7 kmh 29.89 in1012.2 mb 0.00 in0.0 mm 0.00 in0.0 mm 0.08 in2.0 mm
05:53 PM 37.4°F3.0°C 35.0°F1.7°C 91% 2.0 mph WSW3.2 kmh WSW 6.0 mph9.7 kmh 29.90 in1012.5 mb 0.00 in0.0 mm 0.00 in0.0 mm 0.08 in2.0 mm
05:58 PM 37.3°F2.9°C 34.9°F1.6°C 91% 1.0 mph WSW1.6 kmh WSW 5.0 mph8.0 kmh 29.90 in1012.5 mb 0.00 in0.0 mm 0.00 in0.0 mm 0.08 in2.0 mm
06:03 PM 37.2°F2.9°C 34.8°F1.6°C 91% 3.0 mph WSW4.8 kmh WSW 5.0 mph8.0 kmh 29.90 in1012.5 mb 0.00 in0.0 mm 0.00 in0.0 mm 0.08 in2.0 mm
06:08 PM 37.1°F2.8°C 34.7°F1.5°C 91% 4.0 mph WSW6.4 kmh WSW 5.0 mph8.0 kmh 29.90 in1012.5 mb 0.00 in0.0 mm 0.00 in0.0 mm 0.08 in2.0 mm
06:13 PM 37.1°F2.8°C 34.7°F1.5°C 91% 5.0 mph WSW8.0 kmh WSW 5.0 mph8.0 kmh 29.90 in1012.5 mb 0.00 in0.0 mm 0.00 in0.0 mm 0.08 in2.0 mm
06:18 PM 37.1°F2.8°C 34.7°F1.5°C 91% 3.0 mph WSW4.8 kmh WSW 6.0 mph9.7 kmh 29.90 in1012.5 mb 0.00 in0.0 mm 0.00 in0.0 mm 0.08 in2.0 mm
06:23 PM 37.1°F2.8°C 34.7°F1.5°C 91% 3.0 mph WSW4.8 kmh WSW 6.0 mph9.7 kmh 29.91 in1012.9 mb 0.00 in0.0 mm 0.00 in0.0 mm 0.08 in2.0 mm
06:28 PM 37.0°F2.8°C 34.6°F1.4°C 91% 3.0 mph WSW4.8 kmh WSW 6.0 mph9.7 kmh 29.91 in1012.9 mb 0.00 in0.0 mm 0.00 in0.0 mm 0.08 in2.0 mm
06:33 PM 37.0°F2.8°C 34.9°F1.6°C 92% 2.0 mph WSW3.2 kmh WSW 6.0 mph9.7 kmh 29.91 in1012.9 mb 0.00 in0.0 mm 0.00 in0.0 mm 0.08 in2.0 mm
06:38 PM 36.8°F2.7°C 34.7°F1.5°C 92% 3.0 mph WSW4.8 kmh WSW 5.0 mph8.0 kmh 29.91 in1012.9 mb 0.00 in0.0 mm 0.00 in0.0 mm 0.08 in2.0 mm
06:43 PM 36.8°F2.7°C 34.7°F1.5°C 92% 4.0 mph WSW6.4 kmh WSW 6.0 mph9.7 kmh 29.91 in1012.9 mb 0.00 in0.0 mm 0.00 in0.0 mm 0.08 in2.0 mm
06:48 PM 36.7°F2.6°C 34.6°F1.4°C 92% 5.0 mph WSW8.0 kmh WSW 7.0 mph11.3 kmh 29.91 in1012.9 mb 0.00 in0.0 mm 0.00 in0.0 mm 0.08 in2.0 mm
06:53 PM 36.6°F2.6°C 34.5°F1.4°C 92% 9.0 mph WSW14.5 kmh WSW 9.0 mph14.5 kmh 29.91 in1012.9 mb 0.00 in0.0 mm 0.00 in0.0 mm 0.08 in2.0 mm
06:58 PM 36.6°F2.6°C 34.5°F1.4°C 92% 4.0 mph W6.4 kmh W 9.0 mph14.5 kmh 29.92 in1013.2 mb 0.00 in0.0 mm 0.00 in0.0 mm 0.08 in2.0 mm
07:03 PM 36.6°F2.6°C 34.5°F1.4°C 92% 6.0 mph WSW9.7 kmh WSW 10.0 mph16.1 kmh 29.92 in1013.2 mb 0.00 in0.0 mm 0.00 in0.0 mm 0.08 in2.0 mm
07:08 PM 36.6°F2.6°C 34.5°F1.4°C 92% 4.0 mph W6.4 kmh W 10.0 mph16.1 kmh 29.92 in1013.2 mb 0.00 in0.0 mm 0.00 in0.0 mm 0.08 in2.0 mm
07:13 PM 36.7°F2.6°C 34.6°F1.4°C 92% 9.0 mph WSW14.5 kmh WSW 12.0 mph19.3 kmh 29.92 in1013.2 mb 0.00 in0.0 mm 0.00 in0.0 mm 0.08 in2.0 mm
07:18 PM 36.9°F2.7°C 34.8°F1.6°C 92% 6.0 mph WSW9.7 kmh WSW 12.0 mph19.3 kmh 29.93 in1013.5 mb 0.00 in0.0 mm 0.00 in0.0 mm 0.08 in2.0 mm
07:23 PM 37.0°F2.8°C 34.9°F1.6°C 92% 6.0 mph W9.7 kmh W 12.0 mph19.3 kmh 29.92 in1013.2 mb 0.00 in0.0 mm 0.00 in0.0 mm 0.08 in2.0 mm
07:28 PM 37.0°F2.8°C 34.9°F1.6°C 92% 8.0 mph W12.9 kmh W 12.0 mph19.3 kmh 29.93 in1013.5 mb 0.00 in0.0 mm 0.00 in0.0 mm 0.08 in2.0 mm
07:33 PM 37.3°F2.9°C 34.9°F1.6°C 91% 10.0 mph WSW16.1 kmh WSW 15.0 mph24.1 kmh 29.93 in1013.5 mb 0.00 in0.0 mm 0.00 in0.0 mm 0.08 in2.0 mm
07:38 PM 37.3°F2.9°C 34.9°F1.6°C 91% 7.0 mph WSW11.3 kmh WSW 15.0 mph24.1 kmh 29.93 in1013.5 mb 0.00 in0.0 mm 0.00 in0.0 mm 0.08 in2.0 mm
07:43 PM 37.4°F3.0°C 34.7°F1.5°C 90% 7.0 mph WSW11.3 kmh WSW 15.0 mph24.1 kmh 29.93 in1013.5 mb 0.00 in0.0 mm 0.00 in0.0 mm 0.08 in2.0 mm
07:48 PM 37.3°F2.9°C 34.6°F1.4°C 90% 7.0 mph WSW11.3 kmh WSW 15.0 mph24.1 kmh 29.93 in1013.5 mb 0.00 in0.0 mm 0.00 in0.0 mm 0.08 in2.0 mm
07:53 PM 37.3°F2.9°C 34.6°F1.4°C 90% 5.0 mph WSW8.0 kmh WSW 11.0 mph17.7 kmh 29.93 in1013.5 mb 0.00 in0.0 mm 0.00 in0.0 mm 0.08 in2.0 mm
07:58 PM 37.1°F2.8°C 34.4°F1.3°C 90% 7.0 mph WSW11.3 kmh WSW 11.0 mph17.7 kmh 29.93 in1013.5 mb 0.00 in0.0 mm 0.00 in0.0 mm 0.08 in2.0 mm
08:03 PM 37.0°F2.8°C 34.3°F1.3°C 90% 5.0 mph WSW8.0 kmh WSW 10.0 mph16.1 kmh 29.93 in1013.5 mb 0.00 in0.0 mm 0.00 in0.0 mm 0.08 in2.0 mm
08:08 PM 37.1°F2.8°C 34.4°F1.3°C 90% 9.0 mph WSW14.5 kmh WSW 12.0 mph19.3 kmh 29.93 in1013.5 mb 0.00 in0.0 mm 0.00 in0.0 mm 0.08 in2.0 mm
08:13 PM 37.0°F2.8°C 34.3°F1.3°C 90% 8.0 mph WSW12.9 kmh WSW 12.0 mph19.3 kmh 29.93 in1013.5 mb 0.00 in0.0 mm 0.00 in0.0 mm 0.08 in2.0 mm
08:18 PM 37.0°F2.8°C 34.3°F1.3°C 90% 8.0 mph W12.9 kmh W 13.0 mph20.9 kmh 29.93 in1013.5 mb 0.00 in0.0 mm 0.00 in0.0 mm 0.08 in2.0 mm
08:23 PM 36.9°F2.7°C 34.2°F1.2°C 90% 5.0 mph WSW8.0 kmh WSW 13.0 mph20.9 kmh 29.93 in1013.5 mb 0.00 in0.0 mm 0.00 in0.0 mm 0.08 in2.0 mm
08:28 PM 36.9°F2.7°C 34.2°F1.2°C 90% 8.0 mph WSW12.9 kmh WSW 13.0 mph20.9 kmh 29.93 in1013.5 mb 0.00 in0.0 mm 0.00 in0.0 mm 0.08 in2.0 mm
08:33 PM 36.8°F2.7°C 34.1°F1.2°C 90% 6.0 mph W9.7 kmh W 13.0 mph20.9 kmh 29.94 in1013.9 mb 0.00 in0.0 mm 0.00 in0.0 mm 0.08 in2.0 mm
08:38 PM 36.7°F2.6°C 34.0°F1.1°C 90% 7.0 mph WSW11.3 kmh WSW 13.0 mph20.9 kmh 29.94 in1013.9 mb 0.00 in0.0 mm 0.00 in0.0 mm 0.08 in2.0 mm
08:43 PM 36.6°F2.6°C 33.9°F1.1°C 90% 6.0 mph WSW9.7 kmh WSW 13.0 mph20.9 kmh 29.94 in1013.9 mb 0.00 in0.0 mm 0.00 in0.0 mm 0.08 in2.0 mm
08:48 PM 36.6°F2.6°C 33.9°F1.1°C 90% 8.0 mph WSW12.9 kmh WSW 13.0 mph20.9 kmh 29.95 in1014.2 mb 0.00 in0.0 mm 0.00 in0.0 mm 0.08 in2.0 mm
08:53 PM 36.5°F2.5°C 34.1°F1.2°C 91% 5.0 mph WSW8.0 kmh WSW 14.0 mph22.5 kmh 29.95 in1014.2 mb 0.00 in0.0 mm 0.00 in0.0 mm 0.08 in2.0 mm
08:58 PM 36.5°F2.5°C 34.1°F1.2°C 91% 8.0 mph W12.9 kmh W 14.0 mph22.5 kmh 29.95 in1014.2 mb 0.00 in0.0 mm 0.00 in0.0 mm 0.08 in2.0 mm
09:03 PM 36.4°F2.4°C 34.0°F1.1°C 91% 6.0 mph WNW9.7 kmh WNW 14.0 mph22.5 kmh 29.95 in1014.2 mb 0.00 in0.0 mm 0.00 in0.0 mm 0.08 in2.0 mm
09:08 PM 36.5°F2.5°C 34.1°F1.2°C 91% 8.0 mph W12.9 kmh W 14.0 mph22.5 kmh 29.96 in1014.6 mb 0.00 in0.0 mm 0.00 in0.0 mm 0.08 in2.0 mm
09:13 PM 36.5°F2.5°C 34.1°F1.2°C 91% 5.0 mph W8.0 kmh W 14.0 mph22.5 kmh 29.96 in1014.6 mb 0.00 in0.0 mm 0.00 in0.0 mm 0.08 in2.0 mm
09:18 PM 36.6°F2.6°C 34.2°F1.2°C 91% 10.0 mph WSW16.1 kmh WSW 14.0 mph22.5 kmh 29.96 in1014.6 mb 0.00 in0.0 mm 0.00 in0.0 mm 0.08 in2.0 mm
09:23 PM 36.6°F2.6°C 34.2°F1.2°C 91% 8.0 mph W12.9 kmh W 14.0 mph22.5 kmh 29.96 in1014.6 mb 0.00 in0.0 mm 0.00 in0.0 mm 0.08 in2.0 mm
09:28 PM 36.7°F2.6°C 34.3°F1.3°C 91% 8.0 mph W12.9 kmh W 14.0 mph22.5 kmh 29.96 in1014.6 mb 0.00 in0.0 mm 0.00 in0.0 mm 0.08 in2.0 mm
09:33 PM 36.8°F2.7°C 34.4°F1.3°C 91% 12.0 mph W19.3 kmh W 14.0 mph22.5 kmh 29.96 in1014.6 mb 0.00 in0.0 mm 0.00 in0.0 mm 0.08 in2.0 mm
09:38 PM 37.0°F2.8°C 34.6°F1.4°C 91% 10.0 mph WSW16.1 kmh WSW 16.0 mph25.7 kmh 29.96 in1014.6 mb 0.00 in0.0 mm 0.00 in0.0 mm 0.08 in2.0 mm
09:43 PM 37.2°F2.9°C 34.8°F1.6°C 91% 6.0 mph WNW9.7 kmh WNW 16.0 mph25.7 kmh 29.97 in1014.9 mb 0.00 in0.0 mm 0.00 in0.0 mm 0.08 in2.0 mm
09:48 PM 37.3°F2.9°C 34.9°F1.6°C 91% 8.0 mph NW12.9 kmh NW 16.0 mph25.7 kmh 29.97 in1014.9 mb 0.00 in0.0 mm 0.00 in0.0 mm 0.08 in2.0 mm
09:53 PM 37.4°F3.0°C 35.0°F1.7°C 91% 8.0 mph NW12.9 kmh NW 16.0 mph25.7 kmh 29.97 in1014.9 mb 0.00 in0.0 mm 0.00 in0.0 mm 0.08 in2.0 mm
09:58 PM 37.7°F3.2°C 35.3°F1.8°C 91% 4.0 mph WNW6.4 kmh WNW 15.0 mph24.1 kmh 29.98 in1015.2 mb 0.00 in0.0 mm 0.00 in0.0 mm 0.08 in2.0 mm
10:03 PM 37.7°F3.2°C 35.3°F1.8°C 91% 4.0 mph WNW6.4 kmh WNW 15.0 mph24.1 kmh 29.98 in1015.2 mb 0.00 in0.0 mm 0.00 in0.0 mm 0.08 in2.0 mm
10:08 PM 37.8°F3.2°C 35.4°F1.9°C 91% 2.0 mph WNW3.2 kmh WNW 10.0 mph16.1 kmh 29.98 in1015.2 mb 0.00 in0.0 mm 0.00 in0.0 mm 0.08 in2.0 mm
10:13 PM 37.7°F3.2°C 35.3°F1.8°C 91% 3.0 mph NNW4.8 kmh NNW 10.0 mph16.1 kmh 29.99 in1015.6 mb 0.00 in0.0 mm 0.00 in0.0 mm 0.08 in2.0 mm
10:18 PM 37.6°F3.1°C 34.9°F1.6°C 90% 3.0 mph NW4.8 kmh NW 10.0 mph16.1 kmh 29.99 in1015.6 mb 0.00 in0.0 mm 0.00 in0.0 mm 0.08 in2.0 mm
10:23 PM 37.5°F3.1°C 34.8°F1.6°C 90% 3.0 mph NW4.8 kmh NW 10.0 mph16.1 kmh 30.00 in1015.9 mb 0.00 in0.0 mm 0.00 in0.0 mm 0.08 in2.0 mm
10:28 PM 37.3°F2.9°C 34.6°F1.4°C 90% 2.0 mph NW3.2 kmh NW 5.0 mph8.0 kmh 30.00 in1015.9 mb 0.00 in0.0 mm 0.00 in0.0 mm 0.08 in2.0 mm
10:33 PM 37.2°F2.9°C 34.5°F1.4°C 90% 3.0 mph WNW4.8 kmh WNW 5.0 mph8.0 kmh 30.00 in1015.9 mb 0.00 in0.0 mm 0.00 in0.0 mm 0.08 in2.0 mm
10:38 PM 37.2°F2.9°C 34.8°F1.6°C 91% 3.0 mph W4.8 kmh W 7.0 mph11.3 kmh 30.00 in1015.9 mb 0.00 in0.0 mm 0.00 in0.0 mm 0.08 in2.0 mm
11:59 PM 35.8°F2.1°C 33.7°F0.9°C 92% 1.0 mph W1.6 kmh W 2.0 mph3.2 kmh 30.04 in1017.3 mb 0.00 in0.0 mm 0.00 in0.0 mm 0.08 in2.0 mm